Brule, Nebraska
Current Conditions -  °F | °C
As of 2:35 PM on Saturday 20 Dec 2014 (Local Time) from KOGA Reporting Station
Clear Clear  
Wind Chill: 30°   Ceiling: Unl
Heat Index: 37°   Visibility: 10mi
Dew Point: 30°   Wind: 9mph
Humidity: 77%   Direction: 260°W
Pressure: 29.94"   Gusts: NA
Location:  41.09°N, 101.89°W
Report Text: KOGA 202135Z AUTO 26008KT 10SM CLR 03/M01 A2994 RMK AO2 T00261010
Loading
Personal Weather Stations






























Interactive Weather Map New forecast layout! Learn more

10-Day Weather Forecast

Advertisements
Track Severe Weather on mobile